Alcalde, NM

6:37 AM MDT on October 25, 2014 (GMT -0600)
Embudo | Change Station
CLOSE
Current Station
Personal Weather Station
Location: Dixon, NM
Elevation: 5850 ft
Nearby Weather Stations

Elev 5850 ft 36.22 °N, 105.92 °W | Updated 2 minutes ago

Clear
Clear
34.4 °F
Feels Like 34 °F
N
0.0
Wind Variable Wind from North

Today
High -- | Low -- °F
--% Chance of Precip.
Yesterday
High -- | Low -- °F
Precip. -- in
7:20 AM 6:15 PM
Waxing Crescent, 3% visible
Pressure 30.38 in
Visibility 10.0 miles
Clouds Clear
Windchill 34 °F
Dew Point 27 °F
Humidity 79%
Rainfall 0.00 in
Snow Depth Not available.
UV 0 out of 12
Pollen 3.60 out of 12
Air Quality Not available.
Flu Activity Sporadic
METAR KLAM 251215Z AUTO 00000KT 10SM CLR 11/M07 A3038 RMK AO2 T01061073

More Conditions Fewer Conditions

Pressure 30.38 in
Visibility 10.0 miles
Clouds Clear
Windchill 34 °F
Dew Point 27 °F
Humidity 79%
Rainfall 0.00 in
Snow Depth Not available.
UV 0 out of 12
Pollen 3.60 out of 12
Air Quality Not available.
Flu Activity Sporadic
METAR KLAM 251215Z AUTO 00000KT 10SM CLR 11/M07 A3038 RMK AO2 T01061073

More Conditions Fewer Conditions

10-Day Weather Forecast

Almanac

Astronomy

Oct. 25, 2014 Rise Set
Actual Time 7:20 AM MDT 6:15 PM MDT
Civil Twilight 6:53 AM MDT 6:41 PM MDT
Nautical Twilight 6:23 AM MDT 7:12 PM MDT
Astronomical Twilight 5:54 AM MDT 7:41 PM MDT
Moon 8:59 AM MDT 7:43 PM MDT
Length of Visible Light 11h 48m
Length of Day
10h 55m
Tomorrow will be 2m 6s shorter.
Waxing Crescent, 3% of the Moon is Illuminated
Today
Waxing Crescent
Oct 30
First Quarter
Nov 6
Full
Nov 14
Last Quarter
Nov 22
New

Today's Extremes

State Highs State Lows

Community

WunderPhotos

Upload Photos

1,764,821 photos uploaded!

Nearby

Snow Depth

Station Depth Elevation
Quemazon 0 in 9500 ft
Santa Fe 1 in 11445 ft
Elk Cabin 0 in 8210 ft
Gallegos Peak 0 in 9800 ft
Bateman 0 in 9300 ft

Earthquake Activity

City Distance Mag. Time & Date
No recent earthquake activity has been reported nearby.
Minimum magnitude displayed is 2.5.

Coastal Water Temperatures

Place Temperature
No Stations Reporting

Nearby Weather Stations